sensor_id;sensor_type;location;lat;lon;timestamp;P1;durP1;ratioP1;P2;durP2;ratioP2
75593;SDS011;64176;49.156;7.810;2023-07-08T00:01:23;8.70;;;5.07;;
75593;SDS011;64176;49.156;7.810;2023-07-08T00:04:07;7.05;;;4.78;;
75593;SDS011;64176;49.156;7.810;2023-07-08T00:06:51;9.02;;;4.93;;
75593;SDS011;64176;49.156;7.810;2023-07-08T00:09:35;7.13;;;4.53;;
75593;SDS011;64176;49.156;7.810;2023-07-08T00:12:22;9.35;;;5.28;;
75593;SDS011;64176;49.156;7.810;2023-07-08T00:15:05;8.95;;;5.43;;
75593;SDS011;64176;49.156;7.810;2023-07-08T00:17:52;9.05;;;5.40;;
75593;SDS011;64176;49.156;7.810;2023-07-08T00:20:48;9.80;;;5.00;;
75593;SDS011;64176;49.156;7.810;2023-07-08T00:23:33;8.82;;;5.20;;
75593;SDS011;64176;49.156;7.810;2023-07-08T00:29:09;10.02;;;5.10;;
75593;SDS011;64176;49.156;7.810;2023-07-08T00:31:56;8.95;;;5.15;;
75593;SDS011;64176;49.156;7.810;2023-07-08T00:34:41;7.82;;;4.88;;
75593;SDS011;64176;49.156;7.810;2023-07-08T00:37:25;8.90;;;5.85;;
75593;SDS011;64176;49.156;7.810;2023-07-08T00:40:17;8.27;;;5.18;;
75593;SDS011;64176;49.156;7.810;2023-07-08T00:43:03;9.77;;;5.88;;
75593;SDS011;64176;49.156;7.810;2023-07-08T00:45:51;11.45;;;6.25;;
75593;SDS011;64176;49.156;7.810;2023-07-08T00:48:42;10.48;;;5.28;;
75593;SDS011;64176;49.156;7.810;2023-07-08T00:51:28;7.88;;;6.10;;
75593;SDS011;64176;49.156;7.810;2023-07-08T00:54:13;9.32;;;5.72;;
75593;SDS011;64176;49.156;7.810;2023-07-08T00:57:01;9.23;;;5.15;;
75593;SDS011;64176;49.156;7.810;2023-07-08T00:59:51;10.18;;;5.40;;
75593;SDS011;64176;49.156;7.810;2023-07-08T01:02:46;8.40;;;4.90;;
75593;SDS011;64176;49.156;7.810;2023-07-08T01:05:33;10.25;;;6.20;;
75593;SDS011;64176;49.156;7.810;2023-07-08T01:08:18;13.60;;;6.43;;
75593;SDS011;64176;49.156;7.810;2023-07-08T01:11:02;9.63;;;6.00;;
75593;SDS011;64176;49.156;7.810;2023-07-08T01:13:48;10.52;;;6.57;;
75593;SDS011;64176;49.156;7.810;2023-07-08T01:16:34;11.55;;;6.22;;
75593;SDS011;64176;49.156;7.810;2023-07-08T01:19:22;13.15;;;7.75;;
75593;SDS011;64176;49.156;7.810;2023-07-08T01:22:17;10.35;;;6.90;;
75593;SDS011;64176;49.156;7.810;2023-07-08T01:25:01;10.77;;;7.88;;
75593;SDS011;64176;49.156;7.810;2023-07-08T01:27:49;10.98;;;7.43;;
75593;SDS011;64176;49.156;7.810;2023-07-08T01:30:37;11.30;;;7.75;;
75593;SDS011;64176;49.156;7.810;2023-07-08T01:33:28;13.75;;;8.70;;
75593;SDS011;64176;49.156;7.810;2023-07-08T01:36:13;11.25;;;8.25;;
75593;SDS011;64176;49.156;7.810;2023-07-08T01:38:58;12.88;;;7.20;;
75593;SDS011;64176;49.156;7.810;2023-07-08T01:41:44;12.82;;;8.13;;
75593;SDS011;64176;49.156;7.810;2023-07-08T01:44:30;10.98;;;6.78;;
75593;SDS011;64176;49.156;7.810;2023-07-08T01:47:17;13.48;;;7.88;;
75593;SDS011;64176;49.156;7.810;2023-07-08T01:50:04;12.70;;;7.22;;
75593;SDS011;64176;49.156;7.810;2023-07-08T01:52:48;12.32;;;7.03;;
75593;SDS011;64176;49.156;7.810;2023-07-08T01:55:34;10.13;;;6.53;;
75593;SDS011;64176;49.156;7.810;2023-07-08T01:58:18;10.48;;;6.93;;
75593;SDS011;64176;49.156;7.810;2023-07-08T02:01:05;13.82;;;6.20;;
75593;SDS011;64176;49.156;7.810;2023-07-08T02:03:49;8.98;;;5.63;;
75593;SDS011;64176;49.156;7.810;2023-07-08T02:06:33;10.52;;;5.75;;
75593;SDS011;64176;49.156;7.810;2023-07-08T02:09:24;10.55;;;5.57;;
75593;SDS011;64176;49.156;7.810;2023-07-08T02:12:09;10.18;;;6.07;;
75593;SDS011;64176;49.156;7.810;2023-07-08T02:14:52;12.50;;;6.38;;
75593;SDS011;64176;49.156;7.810;2023-07-08T02:17:36;10.40;;;6.43;;
75593;SDS011;64176;49.156;7.810;2023-07-08T02:23:07;9.95;;;5.78;;
75593;SDS011;64176;49.156;7.810;2023-07-08T02:25:52;8.85;;;6.13;;
75593;SDS011;64176;49.156;7.810;2023-07-08T02:28:37;8.25;;;5.70;;
75593;SDS011;64176;49.156;7.810;2023-07-08T02:31:23;10.70;;;5.55;;
75593;SDS011;64176;49.156;7.810;2023-07-08T02:34:08;7.07;;;4.75;;
75593;SDS011;64176;49.156;7.810;2023-07-08T02:36:52;11.68;;;6.22;;
75593;SDS011;64176;49.156;7.810;2023-07-08T02:39:39;10.95;;;5.30;;
75593;SDS011;64176;49.156;7.810;2023-07-08T02:42:25;13.05;;;7.28;;
75593;SDS011;64176;49.156;7.810;2023-07-08T02:45:13;10.07;;;5.88;;
75593;SDS011;64176;49.156;7.810;2023-07-08T02:47:57;8.70;;;6.13;;
75593;SDS011;64176;49.156;7.810;2023-07-08T02:50:41;10.27;;;6.45;;
75593;SDS011;64176;49.156;7.810;2023-07-08T02:53:28;8.32;;;5.25;;
75593;SDS011;64176;49.156;7.810;2023-07-08T02:56:12;10.77;;;6.28;;
75593;SDS011;64176;49.156;7.810;2023-07-08T02:58:56;11.10;;;6.07;;
75593;SDS011;64176;49.156;7.810;2023-07-08T03:01:40;9.70;;;5.57;;
75593;SDS011;64176;49.156;7.810;2023-07-08T03:04:31;12.32;;;6.45;;
75593;SDS011;64176;49.156;7.810;2023-07-08T03:07:16;9.07;;;5.68;;
75593;SDS011;64176;49.156;7.810;2023-07-08T03:10:00;10.15;;;5.70;;
75593;SDS011;64176;49.156;7.810;2023-07-08T03:12:44;10.98;;;5.88;;
75593;SDS011;64176;49.156;7.810;2023-07-08T03:15:29;11.25;;;5.97;;
75593;SDS011;64176;49.156;7.810;2023-07-08T03:18:13;11.30;;;6.20;;
75593;SDS011;64176;49.156;7.810;2023-07-08T03:20:57;10.18;;;6.60;;
75593;SDS011;64176;49.156;7.810;2023-07-08T03:23:42;10.88;;;6.20;;
75593;SDS011;64176;49.156;7.810;2023-07-08T03:26:27;13.15;;;6.30;;
75593;SDS011;64176;49.156;7.810;2023-07-08T03:29:13;11.00;;;6.18;;
75593;SDS011;64176;49.156;7.810;2023-07-08T03:31:59;11.60;;;6.63;;
75593;SDS011;64176;49.156;7.810;2023-07-08T03:37:30;8.48;;;5.25;;
75593;SDS011;64176;49.156;7.810;2023-07-08T03:40:14;9.48;;;5.47;;
75593;SDS011;64176;49.156;7.810;2023-07-08T03:42:58;11.70;;;6.72;;
75593;SDS011;64176;49.156;7.810;2023-07-08T03:45:46;9.98;;;6.15;;
75593;SDS011;64176;49.156;7.810;2023-07-08T03:48:32;9.05;;;5.75;;
75593;SDS011;64176;49.156;7.810;2023-07-08T03:51:23;10.82;;;6.25;;
75593;SDS011;64176;49.156;7.810;2023-07-08T03:54:10;13.27;;;7.25;;
75593;SDS011;64176;49.156;7.810;2023-07-08T03:56:57;10.63;;;5.63;;
75593;SDS011;64176;49.156;7.810;2023-07-08T03:59:43;8.63;;;5.32;;
75593;SDS011;64176;49.156;7.810;2023-07-08T04:02:27;8.73;;;5.32;;
75593;SDS011;64176;49.156;7.810;2023-07-08T04:05:18;10.50;;;5.97;;
75593;SDS011;64176;49.156;7.810;2023-07-08T04:08:05;11.60;;;6.40;;
75593;SDS011;64176;49.156;7.810;2023-07-08T04:10:49;11.32;;;6.82;;
75593;SDS011;64176;49.156;7.810;2023-07-08T04:13:33;10.13;;;6.38;;
75593;SDS011;64176;49.156;7.810;2023-07-08T04:16:17;9.63;;;6.53;;
75593;SDS011;64176;49.156;7.810;2023-07-08T04:19:04;9.77;;;5.95;;
75593;SDS011;64176;49.156;7.810;2023-07-08T04:21:57;12.65;;;6.18;;
75593;SDS011;64176;49.156;7.810;2023-07-08T04:24:41;11.15;;;5.63;;
75593;SDS011;64176;49.156;7.810;2023-07-08T04:27:25;10.13;;;5.15;;
75593;SDS011;64176;49.156;7.810;2023-07-08T04:30:14;11.00;;;6.28;;
75593;SDS011;64176;49.156;7.810;2023-07-08T04:33:07;9.77;;;5.28;;
75593;SDS011;64176;49.156;7.810;2023-07-08T04:35:52;10.88;;;5.68;;
75593;SDS011;64176;49.156;7.810;2023-07-08T04:38:40;9.43;;;5.80;;
75593;SDS011;64176;49.156;7.810;2023-07-08T04:41:28;13.38;;;6.20;;
75593;SDS011;64176;49.156;7.810;2023-07-08T04:44:12;10.02;;;5.90;;
75593;SDS011;64176;49.156;7.810;2023-07-08T04:46:57;9.10;;;5.93;;
75593;SDS011;64176;49.156;7.810;2023-07-08T04:49:42;12.07;;;6.07;;
75593;SDS011;64176;49.156;7.810;2023-07-08T04:52:27;9.77;;;6.40;;
75593;SDS011;64176;49.156;7.810;2023-07-08T04:55:12;9.32;;;5.75;;
75593;SDS011;64176;49.156;7.810;2023-07-08T04:57:59;10.90;;;6.45;;
75593;SDS011;64176;49.156;7.810;2023-07-08T05:00:43;9.57;;;6.00;;
75593;SDS011;64176;49.156;7.810;2023-07-08T05:03:27;8.88;;;5.57;;
75593;SDS011;64176;49.156;7.810;2023-07-08T05:08:58;8.95;;;5.00;;
75593;SDS011;64176;49.156;7.810;2023-07-08T05:11:45;9.95;;;6.55;;
75593;SDS011;64176;49.156;7.810;2023-07-08T05:20:00;10.60;;;6.38;;
75593;SDS011;64176;49.156;7.810;2023-07-08T05:22:45;10.55;;;6.30;;
75593;SDS011;64176;49.156;7.810;2023-07-08T05:25:33;11.32;;;6.43;;
75593;SDS011;64176;49.156;7.810;2023-07-08T05:28:17;9.15;;;6.10;;
75593;SDS011;64176;49.156;7.810;2023-07-08T05:31:01;8.75;;;5.63;;
75593;SDS011;64176;49.156;7.810;2023-07-08T05:33:45;10.55;;;6.30;;
75593;SDS011;64176;49.156;7.810;2023-07-08T05:36:29;11.63;;;6.80;;
75593;SDS011;64176;49.156;7.810;2023-07-08T05:39:16;11.52;;;7.28;;
75593;SDS011;64176;49.156;7.810;2023-07-08T05:42:00;10.30;;;6.25;;
75593;SDS011;64176;49.156;7.810;2023-07-08T05:44:46;11.88;;;7.38;;
75593;SDS011;64176;49.156;7.810;2023-07-08T05:47:31;11.45;;;7.35;;
75593;SDS011;64176;49.156;7.810;2023-07-08T05:50:15;10.38;;;6.65;;
75593;SDS011;64176;49.156;7.810;2023-07-08T05:52:59;10.27;;;6.60;;
75593;SDS011;64176;49.156;7.810;2023-07-08T05:55:43;11.25;;;6.68;;
75593;SDS011;64176;49.156;7.810;2023-07-08T05:58:30;10.95;;;6.65;;
75593;SDS011;64176;49.156;7.810;2023-07-08T06:01:14;11.05;;;7.22;;
75593;SDS011;64176;49.156;7.810;2023-07-08T06:03:58;12.57;;;7.47;;
75593;SDS011;64176;49.156;7.810;2023-07-08T06:06:42;11.95;;;6.50;;
75593;SDS011;64176;49.156;7.810;2023-07-08T06:09:27;10.68;;;6.85;;
75593;SDS011;64176;49.156;7.810;2023-07-08T06:12:13;10.77;;;6.45;;
75593;SDS011;64176;49.156;7.810;2023-07-08T06:17:41;9.15;;;5.60;;
75593;SDS011;64176;49.156;7.810;2023-07-08T06:20:25;10.25;;;5.95;;
75593;SDS011;64176;49.156;7.810;2023-07-08T06:23:09;11.00;;;5.90;;
75593;SDS011;64176;49.156;7.810;2023-07-08T06:25:53;10.57;;;6.05;;
75593;SDS011;64176;49.156;7.810;2023-07-08T06:28:39;15.13;;;7.18;;
75593;SDS011;64176;49.156;7.810;2023-07-08T06:31:23;9.25;;;5.82;;
75593;SDS011;64176;49.156;7.810;2023-07-08T06:34:07;10.00;;;5.45;;
75593;SDS011;64176;49.156;7.810;2023-07-08T06:36:51;9.80;;;6.43;;
75593;SDS011;64176;49.156;7.810;2023-07-08T06:39:35;9.15;;;5.80;;
75593;SDS011;64176;49.156;7.810;2023-07-08T06:42:19;9.13;;;5.40;;
75593;SDS011;64176;49.156;7.810;2023-07-08T06:45:12;8.30;;;5.60;;
75593;SDS011;64176;49.156;7.810;2023-07-08T06:47:57;8.32;;;5.03;;
75593;SDS011;64176;49.156;7.810;2023-07-08T06:50:41;5.78;;;4.32;;
75593;SDS011;64176;49.156;7.810;2023-07-08T06:53:27;5.72;;;3.53;;
75593;SDS011;64176;49.156;7.810;2023-07-08T06:56:11;8.48;;;3.47;;
75593;SDS011;64176;49.156;7.810;2023-07-08T06:58:55;6.70;;;3.42;;
75593;SDS011;64176;49.156;7.810;2023-07-08T07:01:39;4.55;;;2.83;;
75593;SDS011;64176;49.156;7.810;2023-07-08T07:04:23;6.85;;;4.38;;
75593;SDS011;64176;49.156;7.810;2023-07-08T07:07:07;6.88;;;3.92;;
75593;SDS011;64176;49.156;7.810;2023-07-08T07:09:51;8.63;;;3.53;;
75593;SDS011;64176;49.156;7.810;2023-07-08T07:12:35;4.43;;;3.00;;
75593;SDS011;64176;49.156;7.810;2023-07-08T07:15:21;8.13;;;3.15;;
75593;SDS011;64176;49.156;7.810;2023-07-08T07:18:08;5.60;;;3.05;;
75593;SDS011;64176;49.156;7.810;2023-07-08T07:20:53;9.45;;;3.00;;
75593;SDS011;64176;49.156;7.810;2023-07-08T07:23:38;8.10;;;3.40;;
75593;SDS011;64176;49.156;7.810;2023-07-08T07:26:22;5.55;;;3.40;;
75593;SDS011;64176;49.156;7.810;2023-07-08T07:29:06;3.92;;;2.97;;
75593;SDS011;64176;49.156;7.810;2023-07-08T07:31:52;7.13;;;3.50;;
75593;SDS011;64176;49.156;7.810;2023-07-08T07:34:36;9.55;;;3.80;;
75593;SDS011;64176;49.156;7.810;2023-07-08T07:37:24;7.95;;;3.30;;
75593;SDS011;64176;49.156;7.810;2023-07-08T07:40:09;7.43;;;4.15;;
75593;SDS011;64176;49.156;7.810;2023-07-08T07:42:56;5.63;;;3.72;;
75593;SDS011;64176;49.156;7.810;2023-07-08T07:45:40;8.32;;;3.03;;
75593;SDS011;64176;49.156;7.810;2023-07-08T07:48:24;6.45;;;3.15;;
75593;SDS011;64176;49.156;7.810;2023-07-08T07:51:08;6.72;;;3.55;;
75593;SDS011;64176;49.156;7.810;2023-07-08T07:53:54;5.93;;;3.10;;
75593;SDS011;64176;49.156;7.810;2023-07-08T07:56:38;9.50;;;3.15;;
75593;SDS011;64176;49.156;7.810;2023-07-08T07:59:22;8.02;;;3.55;;
75593;SDS011;64176;49.156;7.810;2023-07-08T08:02:07;6.18;;;3.50;;
75593;SDS011;64176;49.156;7.810;2023-07-08T08:04:52;10.60;;;3.00;;
75593;SDS011;64176;49.156;7.810;2023-07-08T08:07:36;5.75;;;3.63;;
75593;SDS011;64176;49.156;7.810;2023-07-08T08:10:20;6.95;;;3.83;;
75593;SDS011;64176;49.156;7.810;2023-07-08T08:13:04;7.20;;;3.47;;
75593;SDS011;64176;49.156;7.810;2023-07-08T08:15:48;7.03;;;3.50;;
75593;SDS011;64176;49.156;7.810;2023-07-08T08:18:32;6.43;;;3.08;;
75593;SDS011;64176;49.156;7.810;2023-07-08T08:21:16;7.20;;;3.75;;
75593;SDS011;64176;49.156;7.810;2023-07-08T08:24:00;5.38;;;3.47;;
75593;SDS011;64176;49.156;7.810;2023-07-08T08:26:44;4.00;;;2.40;;
75593;SDS011;64176;49.156;7.810;2023-07-08T08:29:29;5.72;;;3.30;;
75593;SDS011;64176;49.156;7.810;2023-07-08T08:32:13;7.10;;;3.47;;
75593;SDS011;64176;49.156;7.810;2023-07-08T08:34:57;6.60;;;3.53;;
75593;SDS011;64176;49.156;7.810;2023-07-08T08:37:41;5.57;;;3.60;;
75593;SDS011;64176;49.156;7.810;2023-07-08T08:40:25;4.38;;;3.08;;
75593;SDS011;64176;49.156;7.810;2023-07-08T08:43:12;9.57;;;3.67;;
75593;SDS011;64176;49.156;7.810;2023-07-08T08:46:04;6.18;;;3.50;;
75593;SDS011;64176;49.156;7.810;2023-07-08T08:52:11;6.82;;;3.40;;
75593;SDS011;64176;49.156;7.810;2023-07-08T08:54:57;7.97;;;3.15;;
75593;SDS011;64176;49.156;7.810;2023-07-08T08:57:49;7.40;;;3.45;;
75593;SDS011;64176;49.156;7.810;2023-07-08T09:03:49;7.10;;;3.53;;
75593;SDS011;64176;49.156;7.810;2023-07-08T09:06:38;8.63;;;3.45;;
75593;SDS011;64176;49.156;7.810;2023-07-08T09:09:30;5.70;;;3.13;;
75593;SDS011;64176;49.156;7.810;2023-07-08T09:12:22;8.25;;;3.50;;
75593;SDS011;64176;49.156;7.810;2023-07-08T09:15:11;5.78;;;2.97;;
75593;SDS011;64176;49.156;7.810;2023-07-08T09:18:01;7.32;;;3.67;;
75593;SDS011;64176;49.156;7.810;2023-07-08T09:20:58;9.13;;;2.90;;
75593;SDS011;64176;49.156;7.810;2023-07-08T09:23:50;9.88;;;3.13;;
75593;SDS011;64176;49.156;7.810;2023-07-08T09:26:38;6.95;;;3.45;;
75593;SDS011;64176;49.156;7.810;2023-07-08T09:29:26;7.65;;;3.40;;
75593;SDS011;64176;49.156;7.810;2023-07-08T09:35:05;6.10;;;3.45;;
75593;SDS011;64176;49.156;7.810;2023-07-08T09:37:50;5.10;;;3.40;;
75593;SDS011;64176;49.156;7.810;2023-07-08T09:40:35;5.22;;;3.17;;
75593;SDS011;64176;49.156;7.810;2023-07-08T09:43:27;7.22;;;3.63;;
75593;SDS011;64176;49.156;7.810;2023-07-08T09:46:21;7.20;;;3.90;;
75593;SDS011;64176;49.156;7.810;2023-07-08T09:49:16;5.97;;;3.35;;
75593;SDS011;64176;49.156;7.810;2023-07-08T09:52:06;5.40;;;3.75;;
75593;SDS011;64176;49.156;7.810;2023-07-08T09:54:50;5.32;;;3.13;;
75593;SDS011;64176;49.156;7.810;2023-07-08T09:57:35;7.45;;;2.75;;
75593;SDS011;64176;49.156;7.810;2023-07-08T10:00:26;10.77;;;3.35;;
75593;SDS011;64176;49.156;7.810;2023-07-08T10:03:28;3.92;;;2.65;;
75593;SDS011;64176;49.156;7.810;2023-07-08T10:06:36;4.57;;;3.00;;
75593;SDS011;64176;49.156;7.810;2023-07-08T10:09:20;5.93;;;3.10;;
75593;SDS011;64176;49.156;7.810;2023-07-08T10:12:08;4.68;;;2.88;;
75593;SDS011;64176;49.156;7.810;2023-07-08T10:15:07;6.97;;;3.10;;
75593;SDS011;64176;49.156;7.810;2023-07-08T10:18:03;5.70;;;2.83;;
75593;SDS011;64176;49.156;7.810;2023-07-08T10:26:34;5.07;;;2.42;;
75593;SDS011;64176;49.156;7.810;2023-07-08T10:32:55;4.30;;;2.78;;
75593;SDS011;64176;49.156;7.810;2023-07-08T11:06:34;7.28;;;2.75;;
75593;SDS011;64176;49.156;7.810;2023-07-08T11:09:30;5.70;;;3.53;;
75593;SDS011;64176;49.156;7.810;2023-07-08T11:15:35;5.25;;;2.53;;
75593;SDS011;64176;49.156;7.810;2023-07-08T11:24:51;5.82;;;2.78;;
75593;SDS011;64176;49.156;7.810;2023-07-08T11:27:41;9.18;;;3.15;;
75593;SDS011;64176;49.156;7.810;2023-07-08T11:30:30;5.15;;;2.28;;
75593;SDS011;64176;49.156;7.810;2023-07-08T11:33:19;4.20;;;2.72;;
75593;SDS011;64176;49.156;7.810;2023-07-08T11:36:08;7.65;;;2.55;;
75593;SDS011;64176;49.156;7.810;2023-07-08T11:38:54;5.47;;;3.05;;
75593;SDS011;64176;49.156;7.810;2023-07-08T11:41:39;5.38;;;2.45;;
75593;SDS011;64176;49.156;7.810;2023-07-08T11:44:23;7.47;;;2.67;;
75593;SDS011;64176;49.156;7.810;2023-07-08T11:47:32;7.93;;;3.15;;
75593;SDS011;64176;49.156;7.810;2023-07-08T11:50:20;7.60;;;2.85;;
75593;SDS011;64176;49.156;7.810;2023-07-08T11:53:13;6.55;;;2.70;;
75593;SDS011;64176;49.156;7.810;2023-07-08T11:59:11;5.15;;;3.15;;
75593;SDS011;64176;49.156;7.810;2023-07-08T12:02:10;8.60;;;3.15;;
75593;SDS011;64176;49.156;7.810;2023-07-08T12:05:12;4.88;;;2.60;;
75593;SDS011;64176;49.156;7.810;2023-07-08T12:07:57;6.10;;;2.72;;
75593;SDS011;64176;49.156;7.810;2023-07-08T12:10:52;6.00;;;3.00;;
75593;SDS011;64176;49.156;7.810;2023-07-08T12:13:36;6.78;;;2.78;;
75593;SDS011;64176;49.156;7.810;2023-07-08T12:16:20;4.50;;;2.50;;
75593;SDS011;64176;49.156;7.810;2023-07-08T12:19:05;6.40;;;2.50;;
75593;SDS011;64176;49.156;7.810;2023-07-08T12:21:51;3.90;;;1.95;;
75593;SDS011;64176;49.156;7.810;2023-07-08T12:24:39;5.95;;;2.42;;
75593;SDS011;64176;49.156;7.810;2023-07-08T12:30:12;3.53;;;2.08;;
75593;SDS011;64176;49.156;7.810;2023-07-08T12:33:01;3.53;;;1.88;;
75593;SDS011;64176;49.156;7.810;2023-07-08T12:35:45;4.57;;;2.22;;
75593;SDS011;64176;49.156;7.810;2023-07-08T12:41:25;4.43;;;1.95;;
75593;SDS011;64176;49.156;7.810;2023-07-08T12:44:22;3.72;;;2.03;;
75593;SDS011;64176;49.156;7.810;2023-07-08T12:47:07;4.75;;;1.92;;
75593;SDS011;64176;49.156;7.810;2023-07-08T12:49:52;3.47;;;1.90;;
75593;SDS011;64176;49.156;7.810;2023-07-08T12:52:37;4.50;;;2.47;;
75593;SDS011;64176;49.156;7.810;2023-07-08T12:55:21;3.63;;;2.53;;
75593;SDS011;64176;49.156;7.810;2023-07-08T12:58:12;4.38;;;2.55;;
75593;SDS011;64176;49.156;7.810;2023-07-08T13:01:02;4.65;;;2.03;;
75593;SDS011;64176;49.156;7.810;2023-07-08T13:03:48;5.35;;;2.22;;
75593;SDS011;64176;49.156;7.810;2023-07-08T13:06:35;7.53;;;3.45;;
75593;SDS011;64176;49.156;7.810;2023-07-08T13:09:23;3.00;;;2.25;;
75593;SDS011;64176;49.156;7.810;2023-07-08T13:12:16;3.83;;;2.40;;
75593;SDS011;64176;49.156;7.810;2023-07-08T13:15:11;5.50;;;2.58;;
75593;SDS011;64176;49.156;7.810;2023-07-08T13:18:01;10.23;;;2.40;;
75593;SDS011;64176;49.156;7.810;2023-07-08T13:20:49;7.22;;;2.55;;
75593;SDS011;64176;49.156;7.810;2023-07-08T13:23:35;5.57;;;2.50;;
75593;SDS011;64176;49.156;7.810;2023-07-08T13:26:21;2.90;;;2.15;;
75593;SDS011;64176;49.156;7.810;2023-07-08T13:29:11;5.25;;;2.00;;
75593;SDS011;64176;49.156;7.810;2023-07-08T13:32:03;4.60;;;2.00;;
75593;SDS011;64176;49.156;7.810;2023-07-08T13:34:49;2.60;;;1.58;;
75593;SDS011;64176;49.156;7.810;2023-07-08T13:37:37;5.22;;;2.13;;
75593;SDS011;64176;49.156;7.810;2023-07-08T13:40:21;3.92;;;1.92;;
75593;SDS011;64176;49.156;7.810;2023-07-08T13:43:05;3.72;;;2.03;;
75593;SDS011;64176;49.156;7.810;2023-07-08T13:45:49;4.22;;;1.90;;
75593;SDS011;64176;49.156;7.810;2023-07-08T13:48:35;3.15;;;2.08;;
75593;SDS011;64176;49.156;7.810;2023-07-08T13:51:23;4.78;;;2.53;;
75593;SDS011;64176;49.156;7.810;2023-07-08T13:54:14;3.45;;;1.90;;
75593;SDS011;64176;49.156;7.810;2023-07-08T13:57:11;4.30;;;2.10;;
75593;SDS011;64176;49.156;7.810;2023-07-08T13:59:57;4.90;;;2.28;;
75593;SDS011;64176;49.156;7.810;2023-07-08T14:02:42;4.80;;;2.25;;
75593;SDS011;64176;49.156;7.810;2023-07-08T14:05:28;3.70;;;2.20;;
75593;SDS011;64176;49.156;7.810;2023-07-08T14:08:16;5.45;;;2.17;;
75593;SDS011;64176;49.156;7.810;2023-07-08T14:11:06;4.70;;;2.40;;
75593;SDS011;64176;49.156;7.810;2023-07-08T14:13:52;5.20;;;2.42;;
75593;SDS011;64176;49.156;7.810;2023-07-08T14:16:44;3.92;;;2.30;;
75593;SDS011;64176;49.156;7.810;2023-07-08T14:19:32;6.78;;;2.50;;
75593;SDS011;64176;49.156;7.810;2023-07-08T14:22:20;5.82;;;3.60;;
75593;SDS011;64176;49.156;7.810;2023-07-08T14:25:08;4.18;;;2.17;;
75593;SDS011;64176;49.156;7.810;2023-07-08T14:27:53;4.57;;;3.17;;
75593;SDS011;64176;49.156;7.810;2023-07-08T14:30:42;4.85;;;2.85;;
75593;SDS011;64176;49.156;7.810;2023-07-08T14:33:28;3.03;;;1.90;;
75593;SDS011;64176;49.156;7.810;2023-07-08T14:36:12;8.52;;;2.35;;
75593;SDS011;64176;49.156;7.810;2023-07-08T14:38:58;6.75;;;2.72;;
75593;SDS011;64176;49.156;7.810;2023-07-08T14:41:42;6.18;;;2.75;;
75593;SDS011;64176;49.156;7.810;2023-07-08T14:44:34;2.83;;;1.92;;
75593;SDS011;64176;49.156;7.810;2023-07-08T14:47:19;6.63;;;2.45;;
75593;SDS011;64176;49.156;7.810;2023-07-08T14:50:13;3.00;;;1.92;;
75593;SDS011;64176;49.156;7.810;2023-07-08T14:52:58;5.82;;;2.58;;
75593;SDS011;64176;49.156;7.810;2023-07-08T14:55:43;4.03;;;3.05;;
75593;SDS011;64176;49.156;7.810;2023-07-08T14:58:29;3.63;;;1.88;;
75593;SDS011;64176;49.156;7.810;2023-07-08T15:01:17;3.65;;;2.10;;
75593;SDS011;64176;49.156;7.810;2023-07-08T15:04:08;3.97;;;1.77;;
75593;SDS011;64176;49.156;7.810;2023-07-08T15:06:54;4.22;;;2.63;;
75593;SDS011;64176;49.156;7.810;2023-07-08T15:09:43;4.75;;;2.47;;
75593;SDS011;64176;49.156;7.810;2023-07-08T15:12:28;3.70;;;2.17;;
75593;SDS011;64176;49.156;7.810;2023-07-08T15:15:21;4.03;;;2.33;;
75593;SDS011;64176;49.156;7.810;2023-07-08T15:18:11;3.83;;;2.08;;
75593;SDS011;64176;49.156;7.810;2023-07-08T15:20:57;4.13;;;1.90;;
75593;SDS011;64176;49.156;7.810;2023-07-08T15:23:41;4.38;;;1.70;;
75593;SDS011;64176;49.156;7.810;2023-07-08T15:26:26;5.90;;;2.20;;
75593;SDS011;64176;49.156;7.810;2023-07-08T15:29:12;3.83;;;1.85;;
75593;SDS011;64176;49.156;7.810;2023-07-08T15:31:59;7.95;;;4.05;;
75593;SDS011;64176;49.156;7.810;2023-07-08T15:34:43;5.25;;;2.28;;
75593;SDS011;64176;49.156;7.810;2023-07-08T15:37:27;5.45;;;2.53;;
75593;SDS011;64176;49.156;7.810;2023-07-08T15:40:14;4.18;;;1.73;;
75593;SDS011;64176;49.156;7.810;2023-07-08T15:43:00;5.85;;;2.10;;
75593;SDS011;64176;49.156;7.810;2023-07-08T15:45:48;6.78;;;2.80;;
75593;SDS011;64176;49.156;7.810;2023-07-08T15:48:35;4.93;;;2.28;;
75593;SDS011;64176;49.156;7.810;2023-07-08T15:51:19;8.20;;;2.15;;
75593;SDS011;64176;49.156;7.810;2023-07-08T15:54:03;3.63;;;1.83;;
75593;SDS011;64176;49.156;7.810;2023-07-08T15:56:48;6.70;;;2.60;;
75593;SDS011;64176;49.156;7.810;2023-07-08T15:59:33;2.88;;;1.60;;
75593;SDS011;64176;49.156;7.810;2023-07-08T16:02:22;3.35;;;2.38;;
75593;SDS011;64176;49.156;7.810;2023-07-08T16:05:13;5.05;;;2.25;;
75593;SDS011;64176;49.156;7.810;2023-07-08T16:07:57;2.97;;;1.45;;
75593;SDS011;64176;49.156;7.810;2023-07-08T16:10:41;3.15;;;2.05;;
75593;SDS011;64176;49.156;7.810;2023-07-08T16:13:34;3.45;;;2.08;;
75593;SDS011;64176;49.156;7.810;2023-07-08T16:16:20;2.97;;;1.60;;
75593;SDS011;64176;49.156;7.810;2023-07-08T16:19:08;3.35;;;1.55;;
75593;SDS011;64176;49.156;7.810;2023-07-08T16:21:57;3.30;;;1.83;;
75593;SDS011;64176;49.156;7.810;2023-07-08T16:24:43;4.40;;;2.40;;
75593;SDS011;64176;49.156;7.810;2023-07-08T16:27:27;3.72;;;2.40;;
75593;SDS011;64176;49.156;7.810;2023-07-08T16:30:14;8.48;;;3.60;;
75593;SDS011;64176;49.156;7.810;2023-07-08T16:33:00;6.72;;;2.75;;
75593;SDS011;64176;49.156;7.810;2023-07-08T16:35:46;8.63;;;5.25;;
75593;SDS011;64176;49.156;7.810;2023-07-08T16:38:30;7.07;;;2.22;;
75593;SDS011;64176;49.156;7.810;2023-07-08T16:41:15;6.82;;;3.80;;
75593;SDS011;64176;49.156;7.810;2023-07-08T16:44:09;2.67;;;1.83;;
75593;SDS011;64176;49.156;7.810;2023-07-08T16:46:58;4.88;;;1.80;;
75593;SDS011;64176;49.156;7.810;2023-07-08T16:49:43;3.55;;;2.20;;
75593;SDS011;64176;49.156;7.810;2023-07-08T16:52:27;3.00;;;2.03;;
75593;SDS011;64176;49.156;7.810;2023-07-08T16:55:12;2.72;;;1.58;;
75593;SDS011;64176;49.156;7.810;2023-07-08T16:58:01;5.05;;;2.55;;
75593;SDS011;64176;49.156;7.810;2023-07-08T17:00:45;4.85;;;2.28;;
75593;SDS011;64176;49.156;7.810;2023-07-08T17:03:30;3.20;;;1.30;;
75593;SDS011;64176;49.156;7.810;2023-07-08T17:06:16;3.45;;;1.70;;
75593;SDS011;64176;49.156;7.810;2023-07-08T17:09:01;2.25;;;1.67;;
75593;SDS011;64176;49.156;7.810;2023-07-08T17:11:48;3.22;;;1.52;;
75593;SDS011;64176;49.156;7.810;2023-07-08T17:14:35;2.53;;;1.50;;
75593;SDS011;64176;49.156;7.810;2023-07-08T17:17:19;5.53;;;1.58;;
75593;SDS011;64176;49.156;7.810;2023-07-08T17:20:14;2.92;;;1.52;;
75593;SDS011;64176;49.156;7.810;2023-07-08T17:23:08;3.63;;;1.92;;
75593;SDS011;64176;49.156;7.810;2023-07-08T17:25:56;2.70;;;1.52;;
75593;SDS011;64176;49.156;7.810;2023-07-08T17:28:43;3.25;;;1.90;;
75593;SDS011;64176;49.156;7.810;2023-07-08T17:31:32;4.22;;;2.05;;
75593;SDS011;64176;49.156;7.810;2023-07-08T17:34:22;2.30;;;1.50;;
75593;SDS011;64176;49.156;7.810;2023-07-08T17:37:11;4.20;;;2.05;;
75593;SDS011;64176;49.156;7.810;2023-07-08T17:39:55;3.58;;;2.20;;
75593;SDS011;64176;49.156;7.810;2023-07-08T17:42:40;2.05;;;1.55;;
75593;SDS011;64176;49.156;7.810;2023-07-08T17:45:35;2.72;;;1.33;;
75593;SDS011;64176;49.156;7.810;2023-07-08T17:48:23;4.18;;;2.65;;
75593;SDS011;64176;49.156;7.810;2023-07-08T17:51:08;6.15;;;1.80;;
75593;SDS011;64176;49.156;7.810;2023-07-08T17:53:52;9.48;;;4.28;;
75593;SDS011;64176;49.156;7.810;2023-07-08T17:56:38;5.00;;;3.08;;
75593;SDS011;64176;49.156;7.810;2023-07-08T17:59:24;3.88;;;1.98;;
75593;SDS011;64176;49.156;7.810;2023-07-08T18:02:14;4.72;;;2.28;;
75593;SDS011;64176;49.156;7.810;2023-07-08T18:05:00;5.60;;;2.80;;
75593;SDS011;64176;49.156;7.810;2023-07-08T18:07:44;3.30;;;1.63;;
75593;SDS011;64176;49.156;7.810;2023-07-08T18:10:30;4.47;;;1.60;;